createdAt,value
2018-06-24T00:00:45.982Z,83.70
2018-06-24T00:03:13.568Z,83.20
2018-06-24T00:05:41.277Z,82.70
2018-06-24T00:08:08.936Z,83.80
2018-06-24T00:10:36.618Z,84.20
2018-06-24T00:15:31.914Z,82.60
2018-06-24T00:17:59.576Z,82.80
2018-06-24T00:20:27.213Z,83.20
2018-06-24T00:25:22.423Z,80.40
2018-06-24T00:27:50.136Z,79.10
2018-06-24T00:30:17.766Z,79.70
2018-06-24T00:32:45.433Z,79.00
2018-06-24T00:35:13.077Z,79.60
2018-06-24T00:37:40.783Z,79.20
2018-06-24T00:40:08.518Z,79.30
2018-06-24T00:42:36.178Z,79.50
2018-06-24T00:45:04.007Z,80.50
2018-06-24T00:47:31.691Z,80.50
2018-06-24T00:49:59.392Z,79.30
2018-06-24T00:52:27.063Z,78.10
2018-06-24T00:57:22.246Z,79.60
2018-06-24T01:00:01.228Z,79.40
2018-06-24T01:02:28.943Z,77.90
2018-06-24T01:07:24.087Z,78.10
2018-06-24T01:09:51.754Z,78.20
2018-06-24T01:17:14.528Z,81.00
2018-06-24T01:19:42.163Z,80.50
2018-06-24T01:24:37.364Z,80.30
2018-06-24T01:27:04.971Z,81.10
2018-06-24T01:29:32.607Z,82.50
2018-06-24T01:34:27.816Z,82.70
2018-06-24T01:36:55.519Z,83.30
2018-06-24T01:39:23.188Z,82.80
2018-06-24T01:41:50.841Z,83.20
2018-06-24T01:44:18.483Z,82.40
2018-06-24T01:46:46.229Z,82.50
2018-06-24T01:51:41.389Z,80.70
2018-06-24T01:54:09.061Z,81.30
2018-06-24T01:59:04.291Z,80.60
2018-06-24T02:01:31.892Z,82.00
2018-06-24T02:03:59.547Z,83.50
2018-06-24T02:06:27.217Z,83.50
2018-06-24T02:08:54.918Z,83.10
2018-06-24T02:13:50.147Z,83.10
2018-06-24T02:16:17.788Z,83.30
2018-06-24T02:21:12.952Z,84.70
2018-06-24T02:26:08.239Z,85.00
2018-06-24T02:28:36.209Z,84.40
2018-06-24T02:31:03.910Z,85.10
2018-06-24T02:33:31.509Z,84.50
2018-06-24T02:40:54.217Z,85.50
2018-06-24T02:45:49.447Z,84.70
2018-06-24T02:53:12.182Z,85.40
2018-06-24T02:55:39.789Z,85.50
2018-06-24T02:58:07.475Z,84.60
2018-06-24T03:05:30.204Z,85.40
2018-06-24T03:07:57.913Z,85.70
2018-06-24T03:10:25.551Z,85.80
2018-06-24T03:17:48.271Z,86.20
2018-06-24T03:20:15.980Z,85.70
2018-06-24T03:22:43.640Z,87.50
2018-06-24T03:27:38.886Z,87.00
2018-06-24T03:30:06.612Z,87.90
2018-06-24T03:32:34.270Z,87.70
2018-06-24T03:35:02.066Z,87.30
2018-06-24T03:39:57.279Z,87.60
2018-06-24T03:42:24.914Z,86.70
2018-06-24T03:45:01.984Z,86.90
2018-06-24T03:47:29.595Z,86.70
2018-06-24T03:49:57.228Z,87.70
2018-06-24T03:52:24.867Z,88.30
2018-06-24T03:57:20.073Z,88.60
2018-06-24T04:04:42.883Z,88.00
2018-06-24T04:07:10.537Z,88.10
2018-06-24T04:09:38.187Z,87.20
2018-06-24T04:12:05.883Z,87.00
2018-06-24T04:14:33.517Z,85.90
2018-06-24T04:19:28.702Z,86.10
2018-06-24T04:24:23.888Z,85.50
2018-06-24T04:26:51.547Z,85.60
2018-06-24T04:29:19.238Z,84.80
2018-06-24T04:31:46.916Z,84.40
2018-06-24T04:34:14.557Z,84.80
2018-06-24T04:39:10.546Z,85.50
2018-06-24T04:41:38.229Z,84.70
2018-06-24T04:44:05.915Z,85.50
2018-06-24T04:46:33.569Z,86.10
2018-06-24T04:49:01.473Z,85.10
2018-06-24T04:53:57.078Z,86.80
2018-06-24T04:58:52.290Z,86.80
2018-06-24T05:01:20.137Z,85.80
2018-06-24T05:03:47.788Z,86.00
2018-06-24T05:08:42.959Z,85.90
2018-06-24T05:11:10.654Z,86.50
2018-06-24T05:13:38.755Z,86.80
2018-06-24T05:16:06.381Z,86.90
2018-06-24T05:18:34.082Z,86.60
2018-06-24T05:34:01.249Z,87.30
2018-06-24T05:36:28.887Z,83.50
2018-06-24T05:38:56.543Z,83.30
2018-06-24T05:43:51.788Z,82.40
2018-06-24T05:51:14.543Z,81.70
2018-06-24T05:53:42.230Z,80.70
2018-06-24T05:58:37.469Z,79.80
2018-06-24T06:01:05.212Z,81.30
2018-06-24T06:03:32.869Z,79.50
2018-06-24T06:08:28.167Z,81.30
2018-06-24T06:10:55.894Z,79.50
2018-06-24T06:13:23.519Z,79.50
2018-06-24T06:15:51.253Z,79.50
2018-06-24T06:20:47.160Z,76.50
2018-06-24T06:23:15.424Z,77.00
2018-06-24T06:25:43.131Z,77.70
2018-06-24T06:28:10.812Z,74.90
2018-06-24T06:35:33.644Z,75.40
2018-06-24T06:38:01.404Z,77.80
2018-06-24T06:40:29.079Z,72.40
2018-06-24T06:42:56.799Z,74.40
2018-06-24T06:45:24.528Z,76.20
2018-06-24T06:47:52.150Z,72.70
2018-06-24T06:50:19.851Z,70.90
2018-06-24T06:55:15.104Z,72.40
2018-06-24T07:00:10.467Z,71.90
2018-06-24T07:02:38.133Z,69.70
2018-06-24T07:05:05.784Z,70.00
2018-06-24T07:14:56.155Z,70.80
2018-06-24T07:17:23.786Z,68.20
2018-06-24T07:19:51.540Z,71.70
2018-06-24T07:24:46.763Z,70.70
2018-06-24T07:27:15.101Z,68.60
2018-06-24T07:29:43.469Z,68.00
2018-06-24T07:34:40.245Z,66.70
2018-06-24T07:37:07.910Z,68.60
2018-06-24T07:39:35.590Z,68.40
2018-06-24T07:44:31.409Z,68.30
2018-06-24T07:46:59.134Z,68.60
2018-06-24T07:54:22.371Z,70.00
2018-06-24T08:01:45.284Z,70.70
2018-06-24T08:06:41.564Z,71.10
2018-06-24T08:09:11.016Z,69.50
2018-06-24T08:11:39.731Z,72.20
2018-06-24T08:21:31.404Z,67.50
2018-06-24T08:23:59.287Z,65.60
2018-06-24T08:28:54.500Z,67.90
2018-06-24T08:31:22.206Z,67.80
2018-06-24T08:38:45.806Z,66.70
2018-06-24T08:41:13.580Z,67.00
2018-06-24T08:46:08.859Z,68.20
2018-06-24T08:48:37.440Z,69.00
2018-06-24T08:51:05.304Z,65.90
2018-06-24T08:53:32.985Z,63.80
2018-06-24T08:56:00.653Z,63.30
2018-06-24T08:58:28.345Z,68.40
2018-06-24T09:00:56.066Z,66.60
2018-06-24T09:05:52.086Z,65.60
2018-06-24T09:15:42.589Z,59.90
2018-06-24T09:20:37.751Z,58.30
2018-06-24T09:23:05.525Z,59.50
2018-06-24T09:25:33.246Z,61.30
2018-06-24T09:28:01.017Z,58.80
2018-06-24T09:30:31.131Z,62.40
2018-06-24T09:32:59.161Z,62.40
2018-06-24T09:35:26.815Z,62.80
2018-06-24T09:37:58.205Z,62.10
2018-06-24T09:40:25.871Z,62.50
2018-06-24T09:42:54.816Z,64.00
2018-06-24T09:45:22.443Z,61.30
2018-06-24T09:50:27.096Z,63.60
2018-06-24T09:52:54.762Z,62.10
2018-06-24T09:57:50.077Z,61.10
2018-06-24T10:02:51.975Z,61.30
2018-06-24T10:05:19.975Z,59.30
2018-06-24T10:10:15.450Z,57.80
2018-06-24T10:12:43.165Z,57.30
2018-06-24T10:15:10.872Z,57.20
2018-06-24T10:17:38.840Z,56.10
2018-06-24T10:27:29.406Z,56.60
2018-06-24T10:29:57.321Z,57.50
2018-06-24T10:32:25.031Z,59.00
2018-06-24T10:34:52.926Z,59.50
2018-06-24T10:47:10.517Z,57.00
2018-06-24T10:49:38.185Z,59.20
2018-06-24T10:52:05.846Z,56.90
2018-06-24T10:54:33.612Z,55.80
2018-06-24T10:57:01.382Z,52.90
2018-06-24T10:59:29.137Z,52.50
2018-06-24T11:01:56.917Z,52.70
2018-06-24T11:06:52.071Z,55.50
2018-06-24T11:09:19.756Z,53.00
2018-06-24T11:11:47.426Z,54.50
2018-06-24T11:14:15.110Z,54.20
2018-06-24T11:16:42.822Z,53.00
2018-06-24T11:19:10.505Z,52.40
2018-06-24T11:21:38.255Z,52.10
2018-06-24T11:24:06.378Z,51.90
2018-06-24T11:26:34.543Z,54.30
2018-06-24T11:29:02.296Z,52.90
2018-06-24T11:31:30.172Z,54.10
2018-06-24T11:33:58.706Z,53.40
2018-06-24T11:36:26.355Z,54.00
2018-06-24T11:38:54.051Z,55.50
2018-06-24T11:41:21.786Z,56.60
2018-06-24T11:43:49.427Z,55.20
2018-06-24T11:46:17.160Z,55.80
2018-06-24T11:48:44.938Z,57.80
2018-06-24T11:51:12.656Z,54.00
2018-06-24T11:56:07.967Z,52.90
2018-06-24T11:58:35.635Z,56.20
2018-06-24T12:01:03.426Z,55.00
2018-06-24T12:03:31.134Z,54.90
2018-06-24T12:13:21.961Z,54.90
2018-06-24T12:15:49.668Z,52.10
2018-06-24T12:20:45.003Z,53.90
2018-06-24T12:30:35.536Z,51.70
2018-06-24T12:33:03.263Z,48.80
2018-06-24T12:35:30.964Z,48.90
2018-06-24T12:37:58.670Z,52.40
2018-06-24T12:43:02.263Z,50.50
2018-06-24T12:45:30.182Z,49.20
2018-06-24T12:47:58.546Z,50.60
2018-06-24T12:50:26.263Z,49.80
2018-06-24T12:52:54.478Z,49.00
2018-06-24T12:55:22.208Z,50.30
2018-06-24T12:57:49.978Z,50.20
2018-06-24T13:02:45.296Z,54.40
2018-06-24T13:05:13.021Z,53.50
2018-06-24T13:07:40.757Z,55.30
2018-06-24T13:10:08.910Z,54.90
2018-06-24T13:15:04.746Z,52.90
2018-06-24T13:20:00.102Z,54.70
2018-06-24T13:24:55.342Z,53.70
2018-06-24T13:27:23.076Z,55.50
2018-06-24T13:29:50.736Z,56.70
2018-06-24T13:32:18.438Z,57.00
2018-06-24T13:37:13.756Z,56.50
2018-06-24T13:39:41.485Z,56.80
2018-06-24T13:42:09.187Z,56.40
2018-06-24T13:44:36.943Z,53.20
2018-06-24T13:51:59.816Z,44.80
2018-06-24T13:54:27.453Z,45.50
2018-06-24T13:56:55.315Z,43.50
2018-06-24T14:01:50.578Z,42.50
2018-06-24T14:04:18.247Z,40.60
2018-06-24T14:09:13.392Z,41.00
2018-06-24T14:11:41.049Z,39.10
2018-06-24T14:14:09.459Z,38.60
2018-06-24T14:16:37.109Z,36.90
2018-06-24T14:19:04.823Z,38.70
2018-06-24T14:21:32.479Z,43.00
2018-06-24T14:26:27.877Z,46.00
2018-06-24T14:28:55.514Z,47.30
2018-06-24T14:31:23.176Z,50.00
2018-06-24T14:33:50.826Z,49.20
2018-06-24T14:36:18.481Z,50.20
2018-06-24T14:38:46.122Z,50.60
2018-06-24T14:41:14.107Z,52.30
2018-06-24T14:43:41.861Z,52.20
2018-06-24T14:46:09.489Z,52.00
2018-06-24T14:48:37.452Z,51.90
2018-06-24T14:51:05.438Z,53.30
2018-06-24T14:53:33.081Z,53.60
2018-06-24T14:56:00.788Z,53.60
2018-06-24T14:58:28.443Z,53.80
2018-06-24T15:00:56.087Z,54.60
2018-06-24T15:03:23.749Z,54.00
2018-06-24T15:05:51.428Z,52.30
2018-06-24T15:08:19.077Z,50.20
2018-06-24T15:10:46.735Z,49.10
2018-06-24T15:13:14.383Z,45.10
2018-06-24T15:15:42.108Z,43.80
2018-06-24T15:18:09.798Z,43.40
2018-06-24T15:20:37.383Z,43.30
2018-06-24T15:23:05.459Z,43.70
2018-06-24T15:25:33.217Z,43.70
2018-06-24T15:28:00.848Z,42.90
2018-06-24T15:30:28.522Z,44.40
2018-06-24T15:32:56.244Z,43.50
2018-06-24T15:35:23.958Z,44.40
2018-06-24T15:52:36.889Z,46.60
2018-06-24T15:55:04.623Z,47.40
2018-06-24T15:57:32.258Z,46.90
2018-06-24T15:59:59.931Z,46.90
2018-06-24T16:02:27.548Z,47.20
2018-06-24T16:04:55.243Z,47.40
2018-06-24T16:07:22.901Z,47.90
2018-06-24T16:09:50.591Z,49.00
2018-06-24T16:12:18.255Z,47.20
2018-06-24T16:14:45.901Z,46.30
2018-06-24T16:19:41.083Z,48.60
2018-06-24T16:22:08.784Z,48.90
2018-06-24T16:24:36.552Z,47.60
2018-06-24T16:27:04.173Z,48.50
2018-06-24T16:29:31.790Z,49.20
2018-06-24T16:31:59.507Z,48.10
2018-06-24T16:36:54.652Z,50.60
2018-06-24T16:39:22.299Z,50.70
2018-06-24T16:41:49.909Z,51.60
2018-06-24T16:44:17.539Z,52.40
2018-06-24T16:46:45.245Z,53.10
2018-06-24T16:54:08.098Z,54.60
2018-06-24T16:56:35.749Z,54.60
2018-06-24T16:59:04.368Z,55.50
2018-06-24T17:03:59.595Z,56.00
2018-06-24T17:06:27.266Z,55.30
2018-06-24T17:08:54.961Z,56.40
2018-06-24T17:11:25.003Z,55.10
2018-06-24T17:13:55.020Z,55.70
2018-06-24T17:16:24.898Z,55.40
2018-06-24T17:18:54.449Z,54.20
2018-06-24T17:21:24.925Z,54.10
2018-06-24T17:24:05.127Z,56.30
2018-06-24T17:26:36.668Z,56.40
2018-06-24T17:29:04.603Z,56.20
2018-06-24T17:31:32.212Z,57.10
2018-06-24T17:33:59.838Z,55.90
2018-06-24T17:36:27.598Z,55.40
2018-06-24T17:38:55.264Z,55.70
2018-06-24T17:41:22.951Z,57.40
2018-06-24T17:43:50.643Z,57.50
2018-06-24T17:46:18.313Z,57.20
2018-06-24T17:51:13.561Z,55.90
2018-06-24T17:53:41.188Z,55.00
2018-06-24T17:58:36.309Z,57.70
2018-06-24T18:01:04.179Z,56.00
2018-06-24T18:03:31.800Z,59.30
2018-06-24T18:06:00.243Z,59.40
2018-06-24T18:08:27.878Z,58.10
2018-06-24T18:10:56.504Z,58.80
2018-06-24T18:13:24.133Z,58.50
2018-06-24T18:15:51.880Z,57.70
2018-06-24T18:20:47.125Z,60.30
2018-06-24T18:23:14.755Z,61.00
2018-06-24T18:25:42.451Z,61.10
2018-06-24T18:28:10.252Z,61.60
2018-06-24T18:30:37.824Z,62.10
2018-06-24T18:33:05.556Z,62.90
2018-06-24T18:35:33.939Z,63.30
2018-06-24T18:38:02.341Z,63.90
2018-06-24T18:40:30.540Z,62.60
2018-06-24T18:43:00.680Z,62.10
2018-06-24T18:47:56.684Z,62.60
2018-06-24T18:50:26.809Z,62.20
2018-06-24T18:52:56.034Z,64.00
2018-06-24T18:55:23.619Z,64.30
2018-06-24T18:57:53.503Z,63.60
2018-06-24T19:00:22.419Z,63.50
2018-06-24T19:02:50.335Z,64.60
2018-06-24T19:05:17.859Z,64.10
2018-06-24T19:07:48.383Z,63.90
2018-06-24T19:10:16.864Z,63.40
2018-06-24T19:12:45.295Z,64.20
2018-06-24T19:15:13.359Z,64.00
2018-06-24T19:17:41.685Z,64.40
2018-06-24T19:20:11.018Z,63.80
2018-06-24T19:25:07.489Z,65.10
2018-06-24T19:27:35.771Z,65.40
2018-06-24T19:30:04.981Z,65.00
2018-06-24T19:32:34.148Z,65.90
2018-06-24T19:35:04.338Z,66.50
2018-06-24T19:37:34.819Z,67.30
2018-06-24T19:40:03.505Z,68.70
2018-06-24T19:45:00.551Z,67.50
2018-06-24T19:47:31.180Z,68.80
2018-06-24T19:54:55.756Z,67.40
2018-06-24T19:57:24.763Z,66.80
2018-06-24T19:59:55.305Z,68.00
2018-06-24T20:02:23.869Z,68.30
2018-06-24T20:04:53.179Z,70.20
2018-06-24T20:07:22.570Z,69.50
2018-06-24T20:14:48.729Z,69.30
2018-06-24T20:17:16.948Z,69.60
2018-06-24T20:19:45.510Z,73.00
2018-06-24T20:24:44.800Z,74.40
2018-06-24T20:27:14.085Z,75.80
2018-06-24T20:29:41.736Z,76.00
2018-06-24T20:32:09.328Z,73.50
2018-06-24T20:34:37.299Z,71.60
2018-06-24T20:37:05.060Z,71.40
2018-06-24T20:39:32.739Z,71.00
2018-06-24T20:42:00.361Z,70.70
2018-06-24T20:44:27.975Z,69.10
2018-06-24T20:46:55.605Z,70.10
2018-06-24T20:51:50.759Z,69.80
2018-06-24T20:54:18.362Z,68.80
2018-06-24T20:56:46.236Z,69.80
2018-06-24T21:01:41.452Z,69.70
2018-06-24T21:06:36.725Z,72.20
2018-06-24T21:11:33.855Z,70.10
2018-06-24T21:16:28.991Z,70.10
2018-06-24T21:18:56.665Z,68.60
2018-06-24T21:23:51.791Z,69.70
2018-06-24T21:26:19.368Z,69.10
2018-06-24T21:28:47.018Z,68.40
2018-06-24T21:31:14.599Z,67.90
2018-06-24T21:33:42.165Z,69.40
2018-06-24T21:36:09.778Z,68.80
2018-06-24T21:38:37.374Z,68.80
2018-06-24T21:41:05.011Z,68.00
2018-06-24T21:48:27.679Z,69.60
2018-06-24T21:50:55.315Z,68.40
2018-06-24T21:53:22.967Z,68.20
2018-06-24T21:55:51.280Z,69.20
2018-06-24T22:08:09.639Z,68.60
2018-06-24T22:13:05.675Z,69.70
2018-06-24T22:15:33.500Z,69.70
2018-06-24T22:18:01.174Z,70.00
2018-06-24T22:20:29.197Z,70.10
2018-06-24T22:22:57.151Z,70.50
2018-06-24T22:25:24.866Z,70.40
2018-06-24T22:27:52.679Z,70.90
2018-06-24T22:30:20.286Z,72.00
2018-06-24T22:35:15.831Z,71.20
2018-06-24T22:37:43.766Z,70.00
2018-06-24T22:40:12.278Z,69.80
2018-06-24T22:42:40.051Z,70.90
2018-06-24T22:45:08.035Z,70.70
2018-06-24T22:50:03.299Z,71.00
2018-06-24T22:54:59.750Z,71.70
2018-06-24T23:10:08.229Z,72.50
2018-06-24T23:22:26.666Z,74.30
2018-06-24T23:24:54.303Z,74.40
2018-06-24T23:27:21.913Z,74.30
2018-06-24T23:29:49.790Z,73.90
2018-06-24T23:34:45.084Z,74.60
2018-06-24T23:37:12.681Z,75.60
2018-06-24T23:39:40.265Z,77.90
2018-06-24T23:42:08.076Z,79.50
2018-06-24T23:44:35.958Z,80.10
2018-06-24T23:47:03.709Z,80.30
2018-06-24T23:51:59.614Z,80.70
2018-06-24T23:54:27.365Z,82.30
2018-06-24T23:56:55.049Z,81.70
2018-06-24T23:59:22.735Z,80.60
